A- A+ FrançaisEnglishEspañol中国

Services sur Internet Soldes sur Internet Des idées de cadeaux Météo Météo aéro

La météo à : Autours de vous Tarbes-Lourdes-PyrénéesValreas-Visan Besancon-La-VezeRennes-St-Jacques

La météo aéronautique pour les pilotes, la préparation du vol avec les METAR (METeorological Aerodrome Report, message d'observation des conditions météorologiques pour l'aviation) et Les TAF (Terminal Aerodrome Forecast : message de prévision à court terme des conditions météorologiques pour l'aviation). Et les autres ressources comme les VAC (Visual Approch Chart) et les NOTAM (Notice To Airman) pour préprer les vols.

Aéroport Jonkoping (Suède) / OACI ESGJ/ IATA JKG

L'altitude de l'aéroport Jonkoping est de 226 m = 741 ft. Il est situé à proximité de Jönköping (Suède). La météo générale à 5 jours est disponible pour Jönköpings Kommun situé à 4.8 km.

METAR de l'aéroport Jonkoping - ESGJ

ESGJ 092320Z 34019KT 9999 SCT014 BKN024 M01/M02 Q0999

Décodage du METAR de l'aéroport Jonkoping (SE)

METAR émis par ESGJ le mardi 10 décembre 2019 à 23:20 heure TU, il y a 19 minutes.

La visibilité est de supérieure à 10 km = supérieure à 6.2 sm.

La température est de -1°C = 30 °F et le point rosée est de -2°C = 28 °F . Ce qui correspond à 93% d'humidité relative.

Le QNH est de 999 hPa = 29.5 inHg

Vent de 19 kt = 35 km/h, orienté à 340°.

Nuages : Nuages épars à 1400 ft = 430 mètres. Couverture nuageuse fragmentée à 2400 ft = 730 mètres.

TAF de l'aéroport Jonkoping - ESGJ

ESGJ 011430Z 0115/0121 17008KT 9999 SCT017 BKN030

ESGJ 011430Z 0115/0121 17008KT 9999 nuages épars à 017 couverture nuageuse fragmentée à 030

Aéroport à proximité de Jonkoping

Météo générale à 5 jours à Jönköpings Kommun (4.8 km)Aéroport Hagshult (52 km)Aéroport Eksjo Ranneslatt (53 km)Aéroport Falkoping (54 km)Aéroport Anderstorp (62 km)Aéroport Smalandsstenar (76 km)Aéroport Skovde (78 km)

VAC de l'aéroport Jonkoping - ESGJ

La carte d'approche à vue (VAC Visual Approah Chart) est fournie sans aucune garantie de son actualité. Le pilote est le seul responsable de la vérification de sa validité avant de l'utiliser opérationnellement pour préparer un vol ou l'utiliser lors de sa navigation.

VAC de ESGJ

Vue aérienne de l'aéroport Jonkoping

NOTAM de l'aéroport Jonkoping

Les NOTAM sont fournis sans aucune garantie de leur actualité. Le pilote est le seul responsable de la vérification de sa validité avant de l'utiliser opérationnellement pour préparer un vol ou l'utiliser lors de sa navigation.

Pas de NOTAM

Sources des données